KPWM/PWM METAR and TAF weather

Enter ICAO airport designator
Station Type Date Time Source
KPWM METAR 2021/04/14 19:51 UTC NOAA

KPWM 141951Z 15012KT 10SM FEW050 11/04 A2997 RMK AO2 SLP149 T01060044


Station Type Date Time Source
KPWM Decoded METAR 2021/04/14 19:51 UTC NOAA

PORTLAND INTERNATIONAL JETPORT, ME, United States (KPWM) 43-39N 70-18W 15M
Apr 14, 2021 - 03:51 PM EDT / 2021.04.14 1951 UTC
Wind: from the SSE (150 degrees) at 14 MPH (12 KT):0
Visibility: 10 mile(s):0
Sky conditions: mostly clear
Temperature: 51.1 F (10.6 C)
Dew Point: 39.9 F (4.4 C)
Relative Humidity: 65%
Pressure (altimeter): 29.97 in. Hg (1014 hPa)
ob: KPWM 141951Z 15012KT 10SM FEW050 11/04 A2997 RMK AO2 SLP149 T01060044
cycle: 20

Station Type Date Time Source
KPWM TAF 2021/04/14 18:24 UTC NOAA

TAF KPWM 141721Z 1418/1518 VRB05KT P6SM SCT030
FM150200 VRB03KT P6SM OVC100
FM150500 00000KT P6SM OVC050
FM151200 10004KT P6SM BKN050

Example: see airport list